Organ, New Mexico
Current Conditions -  °F | °C
As of 8:15 AM on Thursday 30 Oct 2014 (Local Time) from KLRU Reporting Station
Clear Clear  
Wind Chill: 56°   Ceiling: Unl
Heat Index: 56°   Visibility: 10mi
Dew Point: 37°   Wind: 6mph
Humidity: 48%   Direction: 340°NNW
Pressure: 30.25"   Gusts: NA
Location:  32.43°N, 106.6°W
Report Text: KLRU 301415Z AUTO 34005KT 10SM CLR 13/03 A3025 RMK AO2 T01340026
Loading
Personal Weather Stations






























Interactive Weather Map
Tropical Storm Tracking
New forecast layout! Learn more

10-Day Weather Forecast

Advertisements
Track Severe Weather on mobile